Time;durP1;ratioP1;P1;durP2;ratioP2;P2;SDS_P1;SDS_P2;PMS_P1;PMS_P2;Temp;Humidity;BMP_temperature;BMP_pressure;BME280_temperature;BME280_humidity;BME280_pressure;Samples;Min_cycle;Max_cycle;Signal;HPM_P1;HPM_P2
2022/10/04 00:01:12;;;;;;;6.47;2.60;;;10.70;99.90;;;;;;8367527;28;20199;-67
2022/10/04 00:05:16;;;;;;;8.40;2.70;;;10.70;99.90;;;;;;8352751;28;20201;-68
2022/10/04 00:09:25;;;;;;;8.17;2.33;;;10.80;99.90;;;;;;8371742;28;20199;-67
2022/10/04 00:13:28;;;;;;;10.20;2.67;;;10.90;99.90;;;;;;8357543;28;20292;-74
2022/10/04 00:17:34;;;;;;;10.00;2.40;;;10.90;99.90;;;;;;8360188;28;20191;-67
2022/10/04 00:21:54;;;;;;;5.20;2.20;;;10.90;99.90;;;;;;8349415;28;20293;-67
2022/10/04 00:25:58;;;;;;;7.70;2.60;;;10.90;99.90;;;;;;8363702;28;20184;-70
2022/10/04 00:30:02;;;;;;;9.07;2.70;;;10.90;99.90;;;;;;8359279;28;20184;-69
2022/10/04 00:34:06;;;;;;;5.60;2.30;;;10.90;99.90;;;;;;8357342;28;20228;-67
2022/10/04 00:38:08;;;;;;;6.33;2.40;;;10.90;99.90;;;;;;8363604;28;20177;-67
2022/10/04 00:42:34;;;;;;;4.77;2.67;;;10.90;99.90;;;;;;8374696;28;20206;-68
2022/10/04 00:46:39;;;;;;;9.50;3.40;;;11.00;99.90;;;;;;8357431;28;20193;-68
2022/10/04 00:50:50;;;;;;;5.10;3.20;;;11.00;99.90;;;;;;8356529;28;20239;-66
2022/10/04 00:54:57;;;;;;;8.20;2.87;;;11.00;99.90;;;;;;8363914;28;20205;-66
2022/10/04 00:59:28;;;;;;;5.17;2.73;;;11.00;99.90;;;;;;8355704;28;20178;-66
2022/10/04 01:03:37;;;;;;;6.90;3.00;;;11.00;99.90;;;;;;8373256;28;20197;-67
2022/10/04 01:07:43;;;;;;;9.23;2.93;;;11.00;99.90;;;;;;8350398;28;20272;-67
2022/10/04 01:11:55;;;;;;;10.13;3.60;;;11.10;99.90;;;;;;8356808;28;20202;-67
2022/10/04 01:16:02;;;;;;;8.70;2.83;;;11.10;99.90;;;;;;8355061;28;20204;-67
2022/10/04 01:20:03;;;;;;;5.67;3.10;;;11.10;99.90;;;;;;8356020;28;20196;-66
2022/10/04 01:24:07;;;;;;;6.17;2.90;;;11.20;99.90;;;;;;8352263;28;20220;-67
2022/10/04 01:28:08;;;;;;;8.77;3.10;;;11.10;99.90;;;;;;8352265;28;20200;-67
2022/10/04 01:32:09;;;;;;;8.07;2.90;;;11.10;99.90;;;;;;8356753;28;20185;-67
2022/10/04 01:36:10;;;;;;;7.83;3.00;;;11.10;99.90;;;;;;8358386;28;20322;-66
2022/10/04 01:40:10;;;;;;;7.03;2.37;;;11.10;99.90;;;;;;8371122;28;20211;-66
2022/10/04 01:44:20;;;;;;;12.37;2.83;;;11.10;99.90;;;;;;8367899;28;20389;-68
2022/10/04 01:48:25;;;;;;;3.77;2.60;;;11.10;99.90;;;;;;8361146;28;20191;-66
2022/10/04 01:52:40;;;;;;;9.43;3.60;;;11.00;99.90;;;;;;8359551;28;20235;-67
2022/10/04 01:56:47;;;;;;;8.50;2.80;;;11.00;99.90;;;;;;8374045;28;20205;-67
2022/10/04 02:01:26;;;;;;;6.73;2.73;;;11.10;99.90;;;;;;8362532;28;20259;-67
2022/10/04 02:05:35;;;;;;;10.53;3.40;;;11.10;99.90;;;;;;8358474;28;20202;-67
2022/10/04 02:09:41;;;;;;;11.37;3.37;;;11.10;99.90;;;;;;8358029;28;20193;-67
2022/10/04 02:13:44;;;;;;;10.70;3.93;;;11.10;99.90;;;;;;8361032;28;20209;-67
2022/10/04 02:17:46;;;;;;;9.57;3.40;;;11.10;99.90;;;;;;8363192;28;20303;-66
2022/10/04 02:21:48;;;;;;;8.20;3.63;;;11.20;99.90;;;;;;8363471;28;20286;-68
2022/10/04 02:25:49;;;;;;;10.20;3.80;;;11.20;99.90;;;;;;8360901;28;20188;-67
2022/10/04 02:29:50;;;;;;;12.20;3.53;;;11.20;99.90;;;;;;8359117;28;20209;-68
2022/10/04 02:33:55;;;;;;;7.73;3.50;;;11.20;99.90;;;;;;8361423;28;20309;-67
2022/10/04 02:38:10;;;;;;;13.07;4.20;;;11.20;99.90;;;;;;8364360;28;20177;-67
2022/10/04 02:42:17;;;;;;;8.47;3.70;;;11.20;99.90;;;;;;8365887;28;20188;-67
2022/10/04 02:46:24;;;;;;;10.60;4.03;;;11.20;99.90;;;;;;8359245;28;20254;-66
2022/10/04 02:50:29;;;;;;;10.93;3.87;;;11.20;99.90;;;;;;8364988;28;20185;-66
2022/10/04 02:54:38;;;;;;;13.80;3.63;;;11.20;99.90;;;;;;8385375;28;20223;-68
2022/10/04 02:58:41;;;;;;;9.57;4.00;;;11.20;99.90;;;;;;8370373;28;20201;-67
2022/10/04 03:03:01;;;;;;;9.70;4.07;;;11.20;99.90;;;;;;8357278;28;20202;-68
2022/10/04 03:07:05;;;;;;;10.10;3.87;;;11.20;99.90;;;;;;8364105;28;20214;-68
2022/10/04 03:11:07;;;;;;;11.70;4.07;;;11.20;99.90;;;;;;8361411;28;20187;-67
2022/10/04 03:15:12;;;;;;;10.70;4.17;;;11.20;99.90;;;;;;8363278;28;20213;-68
2022/10/04 03:19:15;;;;;;;12.53;4.00;;;11.20;99.90;;;;;;8337965;28;20198;-67
2022/10/04 03:23:18;;;;;;;12.90;4.40;;;11.30;99.90;;;;;;8347016;28;20305;-66
2022/10/04 03:27:32;;;;;;;10.83;4.63;;;11.30;99.90;;;;;;8356717;28;20190;-68
2022/10/04 03:31:35;;;;;;;14.00;4.87;;;11.30;99.90;;;;;;8364369;28;20193;-67
2022/10/04 03:35:39;;;;;;;13.97;5.17;;;11.30;99.90;;;;;;8376797;28;20247;-66
2022/10/04 03:39:46;;;;;;;11.33;4.33;;;11.30;99.90;;;;;;8362323;28;20190;-66
2022/10/04 03:43:50;;;;;;;10.80;4.57;;;11.30;99.90;;;;;;8362185;28;20182;-67
2022/10/04 03:47:52;;;;;;;9.17;4.13;;;11.30;99.90;;;;;;8356655;28;20245;-66
2022/10/04 03:51:53;;;;;;;8.87;4.63;;;11.30;99.90;;;;;;8364933;28;20186;-66
2022/10/04 03:55:54;;;;;;;4.57;2.70;;;11.30;99.90;;;;;;8355601;28;20209;-68
2022/10/04 03:59:57;;;;;;;5.43;3.03;;;11.30;99.90;;;;;;8363252;28;20192;-66
2022/10/04 04:04:10;;;;;;;7.73;2.53;;;11.20;99.90;;;;;;8360619;28;20291;-67
2022/10/04 04:08:20;;;;;;;7.63;3.70;;;11.20;99.90;;;;;;8360482;28;20278;-68
2022/10/04 04:12:53;;;;;;;9.33;3.80;;;11.20;99.90;;;;;;8362681;28;20212;-68
2022/10/04 04:17:28;;;;;;;9.43;3.70;;;11.20;99.90;;;;;;8356110;28;20223;-67
2022/10/04 04:21:30;;;;;;;9.10;3.70;;;11.20;99.90;;;;;;8359610;28;20225;-67
2022/10/04 04:25:37;;;;;;;7.53;3.90;;;11.20;99.90;;;;;;8362151;28;20196;-67
2022/10/04 04:29:50;;;;;;;12.77;4.27;;;11.20;99.90;;;;;;8360436;28;20185;-67
2022/10/04 04:33:59;;;;;;;11.23;4.10;;;11.20;99.90;;;;;;8358011;28;20264;-68
2022/10/04 04:38:02;;;;;;;11.90;4.33;;;11.10;99.90;;;;;;8360016;28;20187;-67
2022/10/04 04:42:05;;;;;;;8.63;3.90;;;11.10;99.90;;;;;;8357953;28;20247;-67
2022/10/04 04:46:08;;;;;;;6.13;3.60;;;11.10;99.90;;;;;;8342397;28;20183;-68
2022/10/04 04:50:19;;;;;;;11.23;4.07;;;11.10;99.90;;;;;;8358956;28;20195;-68
2022/10/04 04:54:23;;;;;;;7.53;3.23;;;11.10;99.90;;;;;;8359607;28;20201;-68
2022/10/04 04:58:31;;;;;;;10.10;3.90;;;11.20;99.90;;;;;;8357855;28;20205;-69
2022/10/04 05:02:35;;;;;;;14.77;3.50;;;11.20;99.90;;;;;;8357954;28;20190;-67
2022/10/04 05:06:38;;;;;;;7.90;3.30;;;11.10;99.90;;;;;;8360939;28;20208;-67
2022/10/04 05:11:07;;;;;;;11.40;3.70;;;11.10;99.90;;;;;;8360233;28;20185;-68
2022/10/04 05:15:09;;;;;;;11.87;3.60;;;11.10;99.90;;;;;;8365544;28;20214;-67
2022/10/04 05:19:26;;;;;;;14.97;3.77;;;11.10;99.90;;;;;;8377812;28;20275;-67
2022/10/04 05:23:27;;;;;;;12.83;4.10;;;11.00;99.90;;;;;;8369583;28;20180;-69
2022/10/04 05:27:43;;;;;;;8.53;3.33;;;11.00;99.90;;;;;;8369296;28;20184;-68
2022/10/04 05:31:54;;;;;;;13.37;3.83;;;11.00;99.90;;;;;;8367762;28;20178;-67
2022/10/04 05:36:11;;;;;;;12.67;3.57;;;11.00;99.90;;;;;;8363509;28;20204;-68
2022/10/04 05:40:12;;;;;;;7.37;3.40;;;11.00;99.90;;;;;;8359840;28;20194;-69
2022/10/04 05:44:36;;;;;;;13.83;2.90;;;10.90;99.90;;;;;;8361185;28;20202;-68
2022/10/04 05:48:40;;;;;;;8.53;2.97;;;11.00;99.90;;;;;;8378512;28;20189;-68
2022/10/04 05:52:43;;;;;;;8.23;3.40;;;11.00;99.90;;;;;;8353307;28;20280;-69
2022/10/04 05:57:00;;;;;;;10.90;3.00;;;11.00;99.90;;;;;;8358422;28;20315;-68
2022/10/04 06:01:04;;;;;;;7.30;3.33;;;11.00;99.90;;;;;;8365363;28;20198;-68
2022/10/04 06:05:33;;;;;;;9.03;2.90;;;11.00;99.90;;;;;;8365387;28;20193;-67
2022/10/04 06:09:43;;;;;;;10.77;2.97;;;11.10;99.90;;;;;;8366570;28;20249;-68
2022/10/04 06:14:28;;;;;;;10.17;3.10;;;11.10;99.90;;;;;;8357854;28;20212;-73
2022/10/04 06:19:01;;;;;;;8.20;2.67;;;11.20;99.90;;;;;;8369126;28;20188;-67
2022/10/04 06:23:15;;;;;;;9.47;3.33;;;11.30;99.90;;;;;;8347783;28;20189;-68
2022/10/04 06:27:24;;;;;;;7.73;2.57;;;11.30;99.90;;;;;;8370348;28;20212;-68
2022/10/04 06:31:32;;;;;;;5.13;2.30;;;11.30;99.90;;;;;;8367391;28;20190;-68
2022/10/04 06:35:36;;;;;;;6.87;2.67;;;11.30;99.90;;;;;;8365303;28;20208;-69
2022/10/04 06:39:56;;;;;;;5.33;2.47;;;11.30;99.90;;;;;;8361494;28;20190;-69
2022/10/04 06:44:27;;;;;;;8.67;2.70;;;11.30;99.90;;;;;;8370137;28;20182;-69
2022/10/04 06:48:43;;;;;;;7.43;2.17;;;11.30;99.90;;;;;;8356462;28;20193;-68
2022/10/04 06:52:57;;;;;;;12.07;3.17;;;11.40;99.90;;;;;;8364307;28;20195;-69
2022/10/04 06:57:35;;;;;;;7.70;2.53;;;11.50;99.90;;;;;;8361519;28;20205;-69
2022/10/04 07:01:49;;;;;;;5.63;2.37;;;11.70;99.90;;;;;;8361572;28;20236;-68
2022/10/04 07:05:56;;;;;;;6.10;2.27;;;11.90;99.90;;;;;;8364141;28;20197;-68
2022/10/04 07:10:21;;;;;;;7.27;2.03;;;12.00;99.90;;;;;;8364027;28;20201;-68
2022/10/04 07:14:34;;;;;;;4.40;2.00;;;12.10;99.90;;;;;;8365521;28;20213;-68
2022/10/04 07:18:59;;;;;;;6.47;1.87;;;12.20;99.90;;;;;;8348200;28;20189;-70
2022/10/04 07:23:13;;;;;;;8.47;2.20;;;12.30;99.90;;;;;;8362194;28;20193;-68
2022/10/04 07:27:44;;;;;;;8.60;2.20;;;12.30;99.90;;;;;;8360596;28;20191;-68
2022/10/04 07:32:07;;;;;;;7.87;2.17;;;12.40;99.90;;;;;;8374529;28;20189;-69
2022/10/04 07:36:12;;;;;;;7.63;2.00;;;12.40;99.90;;;;;;8360827;28;20209;-69
2022/10/04 07:40:34;;;;;;;7.40;1.87;;;12.40;99.90;;;;;;8363598;28;20185;-68
2022/10/04 07:44:41;;;;;;;4.70;1.60;;;12.30;99.90;;;;;;8358778;28;20213;-69
2022/10/04 07:48:42;;;;;;;7.50;1.97;;;12.40;99.90;;;;;;8357382;28;20276;-68
2022/10/04 07:53:04;;;;;;;6.60;2.00;;;12.70;99.90;;;;;;8355611;28;20228;-68
2022/10/04 07:57:14;;;;;;;11.37;1.80;;;12.80;99.90;;;;;;8374748;28;20221;-68
2022/10/04 08:01:35;;;;;;;6.07;2.00;;;12.80;99.90;;;;;;8360886;28;20193;-68
2022/10/04 08:05:41;;;;;;;4.50;1.40;;;12.80;99.90;;;;;;8351972;28;20218;-69
2022/10/04 08:10:12;;;;;;;7.37;1.37;;;12.80;99.90;;;;;;8359997;28;20211;-68
2022/10/04 08:14:52;;;;;;;5.33;1.50;;;12.90;99.90;;;;;;8352079;28;20277;-69
2022/10/04 08:19:14;;;;;;;7.73;1.63;;;12.70;99.90;;;;;;8362313;28;20182;-69
2022/10/04 08:23:40;;;;;;;7.37;2.03;;;12.60;99.90;;;;;;8364011;28;20183;-68
2022/10/04 08:32:48;;;;;;;8.23;2.30;;;12.80;99.90;;;;;;8356476;28;20205;-68
2022/10/04 08:37:35;;;;;;;7.87;1.97;;;12.90;99.90;;;;;;8360626;28;20209;-68
2022/10/04 08:41:35;;;;;;;8.90;2.30;;;13.00;99.90;;;;;;8365702;28;20185;-71
2022/10/04 08:45:42;;;;;;;6.63;1.90;;;13.00;99.90;;;;;;8365817;28;20188;-68
2022/10/04 08:50:05;;;;;;;6.13;1.43;;;12.90;99.90;;;;;;8363809;28;20190;-67
2022/10/04 08:54:23;;;;;;;2.40;0.90;;;12.90;99.90;;;;;;8354824;28;20185;-69
2022/10/04 08:58:33;;;;;;;6.60;1.47;;;13.00;99.90;;;;;;8384617;28;20198;-69
2022/10/04 09:02:55;;;;;;;10.50;2.00;;;13.10;99.90;;;;;;8372088;28;20272;-70
2022/10/04 09:07:34;;;;;;;8.13;1.13;;;13.40;99.90;;;;;;8369024;28;20192;-70
2022/10/04 09:11:54;;;;;;;2.83;0.90;;;13.90;1.00;;;;;;8362236;28;20178;-69
2022/10/04 09:16:02;;;;;;;4.73;0.93;;;14.30;1.00;;;;;;8365284;28;20205;-68
2022/10/04 09:20:30;;;;;;;5.23;1.20;;;14.20;1.00;;;;;;8374283;28;20359;-69
2022/10/04 09:24:37;;;;;;;5.40;1.20;;;13.70;1.00;;;;;;8357907;28;20177;-69
2022/10/04 20:09:22;;;;;;;15.63;10.60;;;7.60;99.90;;;;;;8403320;28;20210;-68
2022/10/04 20:13:24;;;;;;;16.23;11.10;;;7.60;99.90;;;;;;8400327;28;20248;-68
2022/10/04 20:17:32;;;;;;;24.50;14.50;;;7.60;99.90;;;;;;8405152;28;20189;-68
2022/10/04 20:21:34;;;;;;;45.30;20.70;;;7.50;99.90;;;;;;8399091;28;20213;-68
2022/10/04 20:25:48;;;;;;;33.70;18.43;;;7.60;99.90;;;;;;8410756;28;20238;-67
2022/10/04 20:29:50;;;;;;;30.47;17.43;;;7.70;99.90;;;;;;8419285;28;20185;-68
2022/10/04 20:33:51;;;;;;;30.80;16.27;;;7.70;99.90;;;;;;8405330;28;20193;-68
2022/10/04 20:37:55;;;;;;;28.30;15.53;;;7.70;99.90;;;;;;8406494;28;20314;-67
2022/10/04 20:42:19;;;;;;;30.17;17.40;;;7.70;99.90;;;;;;8410208;28;20281;-67
2022/10/04 20:46:25;;;;;;;30.97;18.97;;;7.60;99.90;;;;;;8405487;28;20195;-67
2022/10/04 20:50:41;;;;;;;27.00;16.30;;;7.40;99.90;;;;;;8419656;28;20499;-67
2022/10/04 20:54:52;;;;;;;18.53;12.20;;;7.30;99.90;;;;;;8400064;28;20197;-68
2022/10/04 20:58:55;;;;;;;15.40;10.33;;;7.20;99.90;;;;;;8403646;28;20495;-68
2022/10/04 21:03:16;;;;;;;12.10;8.67;;;7.10;99.90;;;;;;8401675;28;20208;-68
2022/10/04 21:07:19;;;;;;;14.20;10.67;;;7.20;99.90;;;;;;8401932;28;20185;-69
2022/10/04 21:11:20;;;;;;;20.77;13.10;;;7.20;99.90;;;;;;8403281;28;20181;-68
2022/10/04 21:15:22;;;;;;;27.77;19.20;;;7.20;99.90;;;;;;8384466;28;20201;-68
2022/10/04 21:19:32;;;;;;;31.17;20.63;;;7.20;99.90;;;;;;8379253;28;20278;-68
2022/10/04 21:23:34;;;;;;;31.53;18.77;;;7.20;99.90;;;;;;8382238;28;20274;-68
2022/10/04 21:27:42;;;;;;;38.63;21.40;;;7.20;99.90;;;;;;8380068;28;20192;-69
2022/10/04 21:31:43;;;;;;;32.37;19.47;;;7.10;99.90;;;;;;8385767;28;20396;-68
2022/10/04 21:35:44;;;;;;;31.37;19.30;;;7.00;99.90;;;;;;8385213;28;20201;-68
2022/10/04 21:39:45;;;;;;;29.40;18.43;;;7.00;99.90;;;;;;8377399;28;20200;-68
2022/10/04 21:43:45;;;;;;;29.57;17.00;;;6.90;99.90;;;;;;8381733;28;20326;-68
2022/10/04 21:47:46;;;;;;;37.90;23.57;;;6.80;99.90;;;;;;8377466;28;20568;-67
2022/10/04 21:51:47;;;;;;;55.83;32.93;;;6.70;99.90;;;;;;8376893;28;20190;-67
2022/10/04 21:55:48;;;;;;;238.17;102.27;;;6.70;99.90;;;;;;8379058;28;20209;-67
2022/10/04 21:59:49;;;;;;;213.43;104.10;;;6.70;99.90;;;;;;8374108;28;20209;-68
2022/10/04 22:03:50;;;;;;;133.10;66.57;;;6.60;99.90;;;;;;8383041;28;20243;-68
2022/10/04 22:07:51;;;;;;;91.43;50.17;;;6.50;99.90;;;;;;8377016;28;20331;-68
2022/10/04 22:11:52;;;;;;;63.67;35.07;;;6.50;99.90;;;;;;8378273;28;20186;-67
2022/10/04 22:15:53;;;;;;;36.33;22.03;;;6.40;99.90;;;;;;8372948;28;20341;-67
2022/10/04 22:19:54;;;;;;;28.20;17.03;;;6.30;99.90;;;;;;8376031;28;20185;-67
2022/10/04 22:23:55;;;;;;;18.20;11.87;;;6.20;99.90;;;;;;8375202;28;20244;-68
2022/10/04 22:27:56;;;;;;;10.63;8.57;;;6.10;99.90;;;;;;8373860;28;20189;-67
2022/10/04 22:31:57;;;;;;;9.57;7.40;;;6.20;99.90;;;;;;8370242;28;20246;-68
2022/10/04 22:36:13;;;;;;;9.97;7.77;;;6.50;99.90;;;;;;8376830;28;20181;-68
2022/10/04 22:40:17;;;;;;;9.67;7.50;;;6.90;99.90;;;;;;8375969;28;20389;-68
2022/10/04 22:44:22;;;;;;;10.20;7.37;;;7.20;99.90;;;;;;8376165;28;20193;-67
2022/10/04 22:48:25;;;;;;;8.27;6.80;;;7.30;99.90;;;;;;8372722;28;20208;-68
2022/10/04 22:52:28;;;;;;;6.63;5.93;;;7.40;99.90;;;;;;8374442;28;20193;-67
2022/10/04 22:56:29;;;;;;;10.13;6.53;;;7.40;99.90;;;;;;8356926;28;20205;-68
2022/10/04 23:00:30;;;;;;;11.23;6.70;;;7.40;99.90;;;;;;8370899;28;20216;-67
2022/10/04 23:04:31;;;;;;;9.17;6.43;;;7.50;99.90;;;;;;8374307;28;20204;-67
2022/10/04 23:08:32;;;;;;;8.63;6.33;;;7.60;99.90;;;;;;8373467;28;20193;-68
2022/10/04 23:12:32;;;;;;;7.90;6.43;;;7.70;99.90;;;;;;8373632;28;20193;-68
2022/10/04 23:16:34;;;;;;;8.60;6.57;;;7.80;99.90;;;;;;8374666;28;20284;-68
2022/10/04 23:20:35;;;;;;;6.73;6.03;;;7.90;99.90;;;;;;8370312;28;20213;-67
2022/10/04 23:24:36;;;;;;;7.00;5.33;;;7.90;99.90;;;;;;8374427;28;20180;-68
2022/10/04 23:28:39;;;;;;;7.50;5.53;;;7.90;99.90;;;;;;8369870;28;20205;-68
2022/10/04 23:32:42;;;;;;;8.07;5.00;;;8.00;99.90;;;;;;8375790;28;20204;-68
2022/10/04 23:36:45;;;;;;;6.83;5.10;;;8.00;99.90;;;;;;8373302;28;20212;-67
2022/10/04 23:40:46;;;;;;;7.47;5.03;;;8.00;99.90;;;;;;8369314;28;20235;-68
2022/10/04 23:44:50;;;;;;;5.97;4.60;;;8.00;99.90;;;;;;8371740;28;20568;-68
2022/10/04 23:48:51;;;;;;;7.30;4.83;;;7.90;99.90;;;;;;8371662;28;20392;-68
2022/10/04 23:52:56;;;;;;;7.07;5.00;;;7.90;99.90;;;;;;8373107;28;20191;-67
2022/10/04 23:56:57;;;;;;;8.90;5.30;;;7.90;99.90;;;;;;8370615;28;20276;-68
